Time;durP1;ratioP1;P1;durP2;ratioP2;P2;SDS_P1;SDS_P2;PMS_P1;PMS_P2;Temp;Humidity;BMP_temperature;BMP_pressure;BME280_temperature;BME280_humidity;BME280_pressure;Samples;Min_cycle;Max_cycle;Signal;HPM_P1;HPM_P2
2022/11/07 00:01:59;;;;;;;7.63;3.80;;;;;;;-145.18;100.00;46683.84;5089385;28;20043;-66
2022/11/07 00:04:27;;;;;;;7.37;4.10;;;;;;;-145.18;100.00;46677.97;5089848;28;20028;-66
2022/11/07 00:06:52;;;;;;;14.70;4.73;;;;;;;-145.18;100.00;46676.03;5089328;28;20105;-66
2022/11/07 00:09:18;;;;;;;13.47;4.53;;;;;;;-145.18;100.00;46674.06;5089654;28;20040;-67
2022/11/07 00:11:43;;;;;;;9.23;3.90;;;;;;;-145.18;100.00;46676.03;5071034;28;20210;-66
2022/11/07 00:14:11;;;;;;;10.23;4.27;;;;;;;-145.18;100.00;46676.03;5089630;28;20067;-66
2022/11/07 00:16:36;;;;;;;9.70;4.10;;;;;;;-145.18;100.00;46676.03;5089553;28;20480;-66
2022/11/07 00:19:02;;;;;;;11.27;3.67;;;;;;;-145.18;100.00;46677.97;5089442;28;20127;-66
2022/11/07 00:21:27;;;;;;;13.10;3.60;;;;;;;-145.18;100.00;46672.13;5089439;28;20119;-66
2022/11/07 00:23:52;;;;;;;13.50;4.03;;;;;;;-145.18;100.00;46677.97;5089724;28;20047;-66
2022/11/07 00:26:18;;;;;;;10.17;4.07;;;;;;;-145.18;100.00;46676.03;5089387;28;20128;-66
2022/11/07 00:28:43;;;;;;;8.83;3.63;;;;;;;-145.18;100.00;46674.06;5089260;28;20051;-66
2022/11/07 00:31:11;;;;;;;13.30;3.90;;;;;;;-145.18;100.00;46674.06;5089375;28;20059;-66
2022/11/07 00:33:37;;;;;;;9.70;3.77;;;;;;;-145.18;100.00;46674.06;5089648;28;20087;-66
2022/11/07 00:36:03;;;;;;;14.73;3.63;;;;;;;-145.18;100.00;46676.03;5088589;28;20559;-66
2022/11/07 00:38:28;;;;;;;13.83;3.87;;;;;;;-145.18;100.00;46679.94;5089428;28;20085;-66
2022/11/07 00:40:55;;;;;;;13.97;3.97;;;;;;;-145.18;100.00;46670.16;5089132;28;20484;-66
2022/11/07 00:43:21;;;;;;;8.97;3.50;;;;;;;-145.18;100.00;46677.97;5089533;28;20415;-66
2022/11/07 00:45:46;;;;;;;16.77;4.83;;;;;;;-145.18;100.00;46674.06;5089057;28;20273;-66
2022/11/07 00:48:11;;;;;;;18.43;3.73;;;;;;;-145.18;100.00;46672.13;5093161;28;20129;-66
2022/11/07 00:50:37;;;;;;;11.27;3.60;;;;;;;-145.18;100.00;46670.16;5093180;28;20460;-66
2022/11/07 00:53:02;;;;;;;9.93;3.23;;;;;;;-145.18;100.00;46674.06;5092473;28;20165;-66
2022/11/07 00:55:27;;;;;;;13.57;4.57;;;;;;;-145.18;100.00;46677.97;5092998;28;20459;-66
2022/11/07 00:57:53;;;;;;;7.30;3.23;;;;;;;-145.18;100.00;46670.16;5092671;28;20044;-66
2022/11/07 01:00:18;;;;;;;11.63;3.00;;;;;;;-145.18;100.00;46672.13;5092895;28;20036;-66
2022/11/07 01:05:08;;;;;;;10.33;3.20;;;;;;;-145.18;100.00;46674.06;5092227;28;20038;-66
2022/11/07 01:05:29;;;;;;;14.17;3.07;;;;;;;-145.18;100.00;46672.13;5092631;28;20445;-66
2022/11/07 01:07:54;;;;;;;18.37;3.77;;;;;;;-145.18;100.00;46672.13;5092507;28;20300;-66
2022/11/07 01:10:19;;;;;;;12.93;2.83;;;;;;;-145.18;100.00;46676.03;5092516;28;20047;-66
2022/11/07 01:12:45;;;;;;;14.90;3.47;;;;;;;-145.18;100.00;46672.13;5074109;28;20506;-66
2022/11/07 01:15:10;;;;;;;13.13;3.07;;;;;;;-145.18;100.00;46674.06;5092355;28;20028;-66
2022/11/07 01:17:35;;;;;;;12.60;2.60;;;;;;;-145.18;100.00;46672.13;5092521;28;20059;-66
2022/11/07 01:20:01;;;;;;;13.83;3.03;;;;;;;-145.18;100.00;46676.03;5092430;28;20055;-66
2022/11/07 01:22:26;;;;;;;16.83;2.70;;;;;;;-145.18;100.00;46670.16;5092503;28;20393;-66
2022/11/07 01:24:51;;;;;;;14.80;3.33;;;;;;;-145.18;100.00;46676.03;5092025;28;20542;-66
2022/11/07 01:27:17;;;;;;;10.97;2.50;;;;;;;-145.18;100.00;46674.06;5092248;28;20678;-66
2022/11/07 01:29:42;;;;;;;18.07;3.13;;;;;;;-145.18;100.00;46672.13;5092223;28;20403;-66
2022/11/07 01:32:07;;;;;;;12.47;2.70;;;;;;;-145.18;100.00;46674.06;5092237;28;20120;-66
2022/11/07 01:34:33;;;;;;;14.57;2.30;;;;;;;-145.18;100.00;46674.06;5092326;28;20506;-66
2022/11/07 01:36:58;;;;;;;13.97;3.30;;;;;;;-145.18;100.00;46676.03;5091529;28;20528;-66
2022/11/07 01:39:23;;;;;;;9.63;2.87;;;;;;;-145.18;100.00;46670.16;5092313;28;20599;-66
2022/11/07 01:41:49;;;;;;;13.07;3.30;;;;;;;-145.18;100.00;46674.06;5091740;28;20505;-66
2022/11/07 01:44:14;;;;;;;9.03;3.60;;;;;;;-145.18;100.00;46679.94;5092263;28;20029;-66
2022/11/07 01:46:42;;;;;;;14.67;2.93;;;;;;;-145.18;100.00;46674.06;5091609;28;20043;-66
2022/11/07 01:49:23;;;;;;;11.87;3.20;;;;;;;-145.18;100.00;46679.94;5092016;28;20055;-66
2022/11/07 01:51:48;;;;;;;15.23;4.73;;;;;;;-145.18;100.00;46674.06;5091469;28;20068;-66
2022/11/07 01:54:18;;;;;;;15.23;3.50;;;;;;;-145.18;100.00;46670.16;5092069;28;20107;-66
2022/11/07 01:56:44;;;;;;;9.87;2.87;;;;;;;-145.18;100.00;46674.06;5091373;28;20158;-66
2022/11/07 01:59:15;;;;;;;11.60;3.40;;;;;;;-145.18;100.00;46677.97;5090823;28;20031;-66
2022/11/07 02:01:41;;;;;;;15.93;3.40;;;;;;;-145.18;100.00;46674.06;5091281;28;20174;-66
2022/11/07 02:04:08;;;;;;;8.70;3.40;;;;;;;-145.18;100.00;46668.22;5091908;28;20122;-66
2022/11/07 02:06:45;;;;;;;15.13;3.80;;;;;;;-145.18;100.00;46672.13;5090942;28;20055;-66
2022/11/07 02:09:12;;;;;;;12.73;3.67;;;;;;;-145.18;100.00;46674.06;5091792;28;20164;-66
2022/11/07 02:11:37;;;;;;;12.43;2.97;;;;;;;-145.18;100.00;46672.13;5091320;28;20036;-66
2022/11/07 02:14:03;;;;;;;12.57;3.33;;;;;;;-145.18;100.00;46668.22;5091505;28;20036;-66
2022/11/07 02:16:31;;;;;;;10.27;3.40;;;;;;;-145.18;100.00;46677.97;5091070;28;20396;-66
2022/11/07 02:18:57;;;;;;;13.40;3.20;;;;;;;-145.18;100.00;46672.13;5091615;28;20032;-66
2022/11/07 02:21:36;;;;;;;15.43;3.67;;;;;;;-145.18;100.00;46674.06;5090999;28;20059;-66
2022/11/07 02:24:21;;;;;;;17.83;4.37;;;;;;;-145.18;100.00;46670.16;5091312;28;20116;-66
2022/11/07 02:26:47;;;;;;;11.77;3.77;;;;;;;-145.18;100.00;46676.03;5090976;28;20082;-66
2022/11/07 02:29:12;;;;;;;11.50;3.70;;;;;;;-145.18;100.00;46672.13;5091399;28;20468;-66
2022/11/07 02:31:38;;;;;;;7.93;3.30;;;;;;;-145.18;100.00;46676.03;5090843;28;20084;-66
2022/11/07 02:34:03;;;;;;;15.30;4.33;;;;;;;-145.18;100.00;46672.13;5091001;28;20382;-66
2022/11/07 02:36:29;;;;;;;11.97;4.10;;;;;;;-145.18;100.00;46674.06;5090508;28;20083;-66
2022/11/07 02:38:57;;;;;;;14.07;4.10;;;;;;;-145.18;100.00;46670.16;5091021;28;20035;-66
2022/11/07 02:41:25;;;;;;;9.77;3.63;;;;;;;-145.18;100.00;46676.03;5090803;28;20123;-66
2022/11/07 02:43:53;;;;;;;16.90;3.87;;;;;;;-145.18;100.00;46670.16;5090685;28;20059;-66
2022/11/07 02:46:21;;;;;;;13.27;4.27;;;;;;;-145.18;100.00;46674.06;5090667;28;20506;-66
2022/11/07 02:48:50;;;;;;;20.50;4.30;;;;;;;-145.18;100.00;46676.03;5090690;28;20060;-66
2022/11/07 02:51:16;;;;;;;12.73;3.77;;;;;;;-145.18;100.00;46676.03;5090904;28;20035;-66
2022/11/07 02:53:41;;;;;;;13.57;4.00;;;;;;;-145.18;100.00;46674.06;5090094;28;20035;-66
2022/11/07 02:56:07;;;;;;;12.63;3.40;;;;;;;-145.18;100.00;46674.06;5090670;28;20032;-66
2022/11/07 02:58:34;;;;;;;16.80;4.23;;;;;;;-145.18;100.00;46676.03;5090542;28;20061;-66
2022/11/07 03:03:37;;;;;;;14.00;3.33;;;;;;;-145.18;100.00;46672.13;5067326;22;20064;-67
2022/11/07 03:06:04;;;;;;;12.00;3.30;;;;;;;-145.18;100.00;46668.22;5050213;28;20052;-67
2022/11/07 03:08:29;;;;;;;16.77;3.47;;;;;;;-145.18;100.00;46670.16;5049285;28;20033;-67
2022/11/07 03:10:55;;;;;;;15.30;3.90;;;;;;;-145.18;100.00;46670.16;5050239;28;20029;-68
2022/11/07 03:13:20;;;;;;;15.50;3.57;;;;;;;-145.18;100.00;46676.03;5049581;28;20036;-67
2022/11/07 03:15:46;;;;;;;12.47;3.50;;;;;;;-145.18;100.00;46670.16;5050191;28;20033;-67
2022/11/07 03:18:11;;;;;;;13.33;3.50;;;;;;;-145.18;100.00;46672.13;5049833;28;20048;-67
2022/11/07 03:20:36;;;;;;;17.70;3.77;;;;;;;-145.18;100.00;46668.22;5050210;28;20029;-67
2022/11/07 03:23:02;;;;;;;16.47;3.83;;;;;;;-145.18;100.00;46672.13;5049635;28;20480;-67
2022/11/07 03:25:27;;;;;;;12.07;3.10;;;;;;;-145.18;100.00;46674.06;5050052;28;20139;-67
2022/11/07 03:27:52;;;;;;;16.07;2.60;;;;;;;-145.18;100.00;46676.03;5049617;28;20088;-67
2022/11/07 03:30:18;;;;;;;10.97;2.50;;;;;;;-145.18;100.00;46674.06;5049652;28;20033;-67
2022/11/07 03:32:43;;;;;;;15.80;3.53;;;;;;;-145.18;100.00;46677.97;5049791;28;20036;-67
2022/11/07 03:35:09;;;;;;;15.33;3.50;;;;;;;-145.18;100.00;46670.16;5049385;28;20556;-68
2022/11/07 03:37:35;;;;;;;16.07;3.30;;;;;;;-145.18;100.00;46676.03;5049896;28;20071;-67
2022/11/07 03:40:00;;;;;;;14.67;3.07;;;;;;;-145.18;100.00;46677.97;5049775;28;20029;-67
2022/11/07 03:42:25;;;;;;;20.10;3.57;;;;;;;-145.18;100.00;46672.13;5031694;28;20485;-67
2022/11/07 03:44:51;;;;;;;17.47;3.63;;;;;;;-145.18;100.00;46681.88;5049696;28;20090;-67
2022/11/07 03:47:16;;;;;;;16.37;3.73;;;;;;;-145.18;100.00;46676.03;5049441;28;20037;-67
2022/11/07 03:49:42;;;;;;;20.03;4.00;;;;;;;-145.18;100.00;46677.97;5049998;28;20037;-67
2022/11/07 03:52:07;;;;;;;16.23;3.17;;;;;;;-145.18;100.00;46679.94;5031510;28;20036;-67
2022/11/07 03:54:32;;;;;;;12.87;2.83;;;;;;;-145.18;100.00;46674.06;5049420;28;20044;-67
2022/11/07 03:56:58;;;;;;;11.53;3.07;;;;;;;-145.18;100.00;46677.97;5049530;28;20045;-67
2022/11/07 03:59:23;;;;;;;10.27;3.50;;;;;;;-145.18;100.00;46676.03;5049820;28;20037;-67
2022/11/07 04:01:49;;;;;;;14.93;3.97;;;;;;;-145.18;100.00;46679.94;5049551;28;20032;-67
2022/11/07 04:04:14;;;;;;;15.67;3.67;;;;;;;-145.18;100.00;46681.88;5049142;28;20056;-67
2022/11/07 04:06:39;;;;;;;12.03;3.27;;;;;;;-145.18;100.00;46676.03;5049678;28;20514;-67
2022/11/07 04:09:05;;;;;;;16.20;3.70;;;;;;;-145.18;100.00;46683.84;5049229;28;20033;-67
2022/11/07 04:19:43;;;;;;;19.03;4.07;;;;;;;-145.18;100.00;46677.97;5029811;28;20041;-67
2022/11/07 04:22:08;;;;;;;16.83;3.30;;;;;;;-145.18;100.00;46676.03;5031541;28;20033;-67
2022/11/07 04:24:33;;;;;;;16.67;3.30;;;;;;;-145.18;100.00;46677.97;5033448;28;20073;-68
2022/11/07 04:29:42;;;;;;;20.13;4.50;;;;;;;-145.18;100.00;46676.03;5033683;28;20120;-67
2022/11/07 04:32:08;;;;;;;12.67;3.53;;;;;;;-145.18;100.00;46677.97;5032953;28;20100;-68
2022/11/07 04:34:33;;;;;;;18.93;3.67;;;;;;;-145.18;100.00;46681.88;5033205;28;20040;-68
2022/11/07 04:36:59;;;;;;;19.17;3.87;;;;;;;-145.18;100.00;46679.94;5032923;28;20036;-67
2022/11/07 04:39:24;;;;;;;19.07;3.47;;;;;;;-145.18;100.00;46676.03;5033135;28;20430;-67
2022/11/07 04:41:49;;;;;;;22.87;4.07;;;;;;;-145.18;100.00;46674.06;5033109;28;20501;-68
2022/11/07 04:44:15;;;;;;;19.37;3.47;;;;;;;-145.18;100.00;46676.03;5032813;28;20033;-67
2022/11/07 04:46:40;;;;;;;16.47;3.37;;;;;;;-145.18;100.00;46670.16;5033028;28;20048;-68
2022/11/07 04:49:05;;;;;;;21.30;3.47;;;;;;;-145.18;100.00;46676.03;5032671;28;20040;-67
2022/11/07 04:51:31;;;;;;;14.60;3.53;;;;;;;-145.18;100.00;46683.84;5032741;28;20460;-68
2022/11/07 04:53:56;;;;;;;15.63;3.40;;;;;;;-145.18;100.00;46679.94;5032871;28;20531;-68
2022/11/07 04:56:21;;;;;;;19.70;3.97;;;;;;;-145.18;100.00;46679.94;5032582;28;20489;-67
2022/11/07 04:58:47;;;;;;;16.87;3.50;;;;;;;-145.18;100.00;46683.84;5032659;28;20044;-68
2022/11/07 05:01:12;;;;;;;18.67;3.90;;;;;;;-145.18;100.00;46676.03;5032543;28;20029;-68
2022/11/07 05:03:37;;;;;;;23.57;4.33;;;;;;;-145.18;100.00;46674.06;5042983;28;20095;-67
2022/11/07 05:06:03;;;;;;;23.27;3.43;;;;;;;-145.18;100.00;46681.88;5052143;28;20049;-67
2022/11/07 05:08:29;;;;;;;21.40;3.50;;;;;;;-145.18;100.00;46679.94;5052159;28;20041;-68
2022/11/07 05:10:55;;;;;;;16.30;3.40;;;;;;;-145.18;100.00;46679.94;5052344;28;20032;-67
2022/11/07 05:13:20;;;;;;;18.07;3.53;;;;;;;-145.18;100.00;46677.97;5051533;28;20035;-68
2022/11/07 05:15:46;;;;;;;22.67;3.97;;;;;;;-145.18;100.00;46679.94;5052163;28;20079;-68
2022/11/07 05:18:12;;;;;;;20.33;4.20;;;;;;;-145.18;100.00;46677.97;5051957;28;20037;-68
2022/11/07 05:20:38;;;;;;;17.83;3.90;;;;;;;-145.18;100.00;46677.97;5052149;28;20027;-68
2022/11/07 05:23:11;;;;;;;21.13;3.57;;;;;;;-145.18;100.00;46695.56;5051736;28;20044;-68
2022/11/07 05:25:40;;;;;;;18.47;3.70;;;;;;;-145.18;100.00;46679.94;5052246;28;20029;-68
2022/11/07 05:28:06;;;;;;;18.80;3.33;;;;;;;-145.18;100.00;46676.03;5051695;28;20037;-67
2022/11/07 05:30:31;;;;;;;23.07;4.33;;;;;;;-145.18;100.00;46691.66;5052093;28;20063;-68
2022/11/07 05:32:56;;;;;;;13.73;3.20;;;;;;;-145.18;100.00;46687.75;5050434;28;20039;-68
2022/11/07 05:35:22;;;;;;;14.67;3.50;;;;;;;-145.18;100.00;46676.03;5051904;28;20048;-68
2022/11/07 05:37:48;;;;;;;19.93;3.33;;;;;;;-145.18;100.00;46683.84;5051798;28;20029;-67
2022/11/07 05:40:13;;;;;;;21.17;4.00;;;;;;;-145.18;100.00;46681.88;5051709;28;20036;-67
2022/11/07 05:42:39;;;;;;;13.73;3.53;;;;;;;-145.18;100.00;46681.88;5051535;28;20095;-67
2022/11/07 05:45:05;;;;;;;28.13;4.30;;;;;;;-145.18;100.00;46674.06;5051566;28;20477;-67
2022/11/07 05:47:30;;;;;;;18.97;3.77;;;;;;;-145.18;100.00;46681.88;5051772;28;20048;-67
2022/11/07 05:49:56;;;;;;;21.00;4.00;;;;;;;-145.18;100.00;46679.94;5051679;28;20037;-67
2022/11/07 05:52:21;;;;;;;24.10;3.70;;;;;;;-145.18;100.00;46689.69;5050978;28;20044;-67
2022/11/07 05:54:46;;;;;;;22.47;3.77;;;;;;;-145.18;100.00;46679.94;5051465;28;20422;-67
2022/11/07 05:57:12;;;;;;;21.40;4.17;;;;;;;-145.18;100.00;46679.94;5051152;28;20059;-67
2022/11/07 05:59:37;;;;;;;24.00;4.50;;;;;;;-145.18;100.00;46679.94;5050613;28;20091;-67
2022/11/07 06:02:02;;;;;;;25.00;3.27;;;;;;;-145.18;100.00;46676.03;5051360;28;20091;-67
2022/11/07 06:04:28;;;;;;;18.67;3.20;;;;;;;-145.18;100.00;46681.88;5047646;28;20064;-67
2022/11/07 06:06:53;;;;;;;25.80;3.27;;;;;;;-145.18;100.00;46677.97;5049369;28;20033;-68
2022/11/07 06:09:18;;;;;;;19.97;2.93;;;;;;;-145.18;100.00;46681.88;5045891;28;20025;-67
2022/11/07 06:11:44;;;;;;;16.07;3.17;;;;;;;-145.18;100.00;46681.88;5030855;28;20025;-67
2022/11/07 06:14:09;;;;;;;28.50;4.70;;;;;;;-145.18;100.00;46681.88;5039047;28;20033;-68
2022/11/07 06:16:35;;;;;;;18.50;3.40;;;;;;;-145.18;100.00;46679.94;5030761;28;20041;-68
2022/11/07 06:19:01;;;;;;;27.20;4.03;;;;;;;-145.18;100.00;46679.94;5045739;28;20036;-68
2022/11/07 06:21:26;;;;;;;17.30;2.80;;;;;;;-145.18;100.00;46681.88;5050563;28;20033;-67
2022/11/07 06:23:51;;;;;;;17.10;3.30;;;;;;;-145.18;100.00;46681.88;5049813;28;20481;-67
2022/11/07 06:26:17;;;;;;;19.10;3.07;;;;;;;-145.18;100.00;46685.78;5050106;28;20049;-68
2022/11/07 06:28:42;;;;;;;18.47;3.10;;;;;;;-145.18;100.00;46689.69;5049903;28;20525;-68
2022/11/07 06:31:09;;;;;;;20.47;4.20;;;;;;;-145.18;100.00;46679.94;5050381;28;20541;-68
2022/11/07 06:33:34;;;;;;;18.23;3.57;;;;;;;-145.18;100.00;46676.03;5050249;28;20729;-67
2022/11/07 06:36:07;;;;;;;21.97;4.73;;;;;;;-145.18;100.00;46677.97;5050279;28;20065;-68
2022/11/07 06:38:32;;;;;;;19.97;3.43;;;;;;;-145.18;100.00;46683.84;5049668;28;20033;-67
2022/11/07 06:41:05;;;;;;;18.83;3.10;;;;;;;-145.18;100.00;46685.78;5049823;28;20079;-67
2022/11/07 06:43:31;;;;;;;20.63;4.47;;;;;;;-145.18;100.00;46685.78;5049920;28;20465;-67
2022/11/07 06:45:57;;;;;;;16.33;3.87;;;;;;;-145.18;100.00;46681.88;5050284;28;20499;-67
2022/11/07 06:48:22;;;;;;;19.87;3.83;;;;;;;-145.18;100.00;46683.84;5050331;28;20026;-67
2022/11/07 06:50:55;;;;;;;22.57;3.80;;;;;;;-145.18;100.00;46687.75;5050486;28;20060;-67
2022/11/07 06:53:20;;;;;;;21.30;4.23;;;;;;;-145.18;100.00;46683.84;5050134;28;20033;-68
2022/11/07 06:55:46;;;;;;;22.60;4.07;;;;;;;-145.18;100.00;46687.75;5050541;28;20045;-68
2022/11/07 06:58:11;;;;;;;19.87;3.80;;;;;;;-145.18;100.00;46689.69;5030892;28;20033;-68
2022/11/07 07:00:36;;;;;;;13.50;3.87;;;;;;;-145.18;100.00;46679.94;5050364;28;20044;-68
2022/11/07 07:03:02;;;;;;;15.27;4.13;;;;;;;-145.18;100.00;46679.94;5049525;28;20053;-67
2022/11/07 07:05:28;;;;;;;18.47;4.00;;;;;;;-145.18;100.00;46691.66;5050279;28;20544;-67
2022/11/07 07:07:54;;;;;;;18.40;2.90;;;;;;;-145.18;100.00;46687.75;5050071;28;20120;-68
2022/11/07 07:10:20;;;;;;;18.33;4.80;;;;;;;-145.18;100.00;46687.75;5049202;28;20040;-68
2022/11/07 07:12:45;;;;;;;17.13;3.83;;;;;;;-145.18;100.00;46683.84;5049427;28;20033;-68
2022/11/07 07:15:11;;;;;;;22.57;4.07;;;;;;;-145.18;100.00;46679.94;5048716;28;20060;-68
2022/11/07 07:17:36;;;;;;;13.97;3.37;;;;;;;-145.18;100.00;46687.75;5050077;28;20044;-68
2022/11/07 07:20:03;;;;;;;14.27;3.60;;;;;;;-145.18;100.00;46681.88;5049421;28;20041;-68
2022/11/07 07:22:28;;;;;;;25.90;4.60;;;;;;;-145.18;100.00;46687.75;5049815;28;20099;-68
2022/11/07 07:24:54;;;;;;;25.27;4.67;;;;;;;-145.18;100.00;46685.78;5049490;28;20041;-68
2022/11/07 07:27:19;;;;;;;22.80;3.73;;;;;;;-145.18;100.00;46683.84;5029856;28;20099;-68
2022/11/07 07:29:46;;;;;;;19.33;4.47;;;;;;;-145.18;100.00;46687.75;5049314;28;20497;-68
2022/11/07 07:32:11;;;;;;;20.40;4.30;;;;;;;-145.18;100.00;46689.69;5049619;28;20125;-68
2022/11/07 07:34:36;;;;;;;26.43;4.40;;;;;;;-145.18;100.00;46687.75;5049337;28;20439;-68
2022/11/07 07:37:02;;;;;;;26.77;4.13;;;;;;;-145.18;100.00;46691.66;5045097;28;20044;-68
2022/11/07 07:39:27;;;;;;;18.00;3.63;;;;;;;-145.18;100.00;46685.78;5049655;28;20449;-68
2022/11/07 07:41:53;;;;;;;24.20;4.93;;;;;;;-145.18;100.00;46693.59;5049622;28;20051;-68
2022/11/07 07:44:18;;;;;;;20.83;3.47;;;;;;;-145.18;100.00;46695.56;5048525;28;20538;-68
2022/11/07 07:46:43;;;;;;;23.83;4.83;;;;;;;-145.18;100.00;46683.84;5047583;28;20048;-68
2022/11/07 07:49:09;;;;;;;11.60;3.47;;;;;;;-145.18;100.00;46685.78;5047408;28;20052;-68
2022/11/07 07:51:34;;;;;;;24.70;4.10;;;;;;;-145.18;100.00;46689.69;5049727;28;20029;-68
2022/11/07 07:54:00;;;;;;;25.63;4.80;;;;;;;-145.18;100.00;46685.78;5049053;28;20064;-68
2022/11/07 07:56:26;;;;;;;18.70;3.57;;;;;;;-145.18;100.00;46689.69;5050746;28;20032;-68
2022/11/07 07:58:51;;;;;;;16.97;3.70;;;;;;;-145.18;100.00;46689.69;5053110;28;20045;-68
2022/11/07 08:01:17;;;;;;;16.73;3.63;;;;;;;-145.18;100.00;46701.41;5053238;28;20417;-68
2022/11/07 08:03:42;;;;;;;15.47;3.40;;;;;;;-145.18;100.00;46695.56;5053368;28;20049;-68
2022/11/07 08:06:09;;;;;;;22.97;4.13;;;;;;;-145.18;100.00;46687.75;5053472;28;20405;-68
2022/11/07 08:08:34;;;;;;;15.83;3.40;;;;;;;-145.18;100.00;46687.75;5053040;28;20029;-68
2022/11/07 08:11:07;;;;;;;16.37;3.47;;;;;;;-145.18;100.00;46683.84;5053381;28;20021;-68
2022/11/07 08:13:33;;;;;;;19.80;3.53;;;;;;;-145.18;100.00;46685.78;5053271;28;20104;-68
2022/11/07 08:16:01;;;;;;;17.87;3.87;;;;;;;-145.18;100.00;46687.75;5052434;28;20045;-68
2022/11/07 08:18:27;;;;;;;18.87;3.90;;;;;;;-145.18;100.00;46691.66;5052959;28;20060;-68
2022/11/07 08:20:53;;;;;;;15.10;3.07;;;;;;;-145.18;100.00;46697.50;5035422;28;20068;-68
2022/11/07 08:23:19;;;;;;;16.53;3.30;;;;;;;-145.18;100.00;46695.56;5052800;28;20028;-68
2022/11/07 08:25:52;;;;;;;15.83;3.60;;;;;;;-145.18;100.00;46693.59;5053449;28;20044;-68
2022/11/07 08:28:18;;;;;;;16.67;3.13;;;;;;;-145.18;100.00;46687.75;5051963;28;20028;-68
2022/11/07 08:30:43;;;;;;;15.40;3.30;;;;;;;-145.18;100.00;46695.56;5053325;28;20033;-68
2022/11/07 08:33:08;;;;;;;21.53;3.47;;;;;;;-145.18;100.00;46691.66;5052701;28;20087;-68
2022/11/07 08:35:34;;;;;;;24.63;4.97;;;;;;;-145.18;100.00;46693.59;5053076;28;20056;-68
2022/11/07 08:37:59;;;;;;;18.93;4.10;;;;;;;-145.18;100.00;46693.59;5052566;28;20425;-68
2022/11/07 08:40:25;;;;;;;17.63;3.77;;;;;;;-145.18;100.00;46693.59;5052953;28;20692;-68
2022/11/07 08:42:51;;;;;;;22.57;3.57;;;;;;;-145.18;100.00;46691.66;5052814;28;20029;-68
2022/11/07 08:45:16;;;;;;;13.43;3.23;;;;;;;-145.18;100.00;46693.59;5052515;28;20571;-68
2022/11/07 08:47:42;;;;;;;18.43;3.67;;;;;;;-145.18;100.00;46695.56;5053218;28;20388;-68
2022/11/07 08:50:07;;;;;;;21.10;3.27;;;;;;;-145.18;100.00;46697.50;5051831;28;20033;-68
2022/11/07 08:52:34;;;;;;;14.73;3.53;;;;;;;-145.18;100.00;46699.47;5052432;28;20048;-68
2022/11/07 08:55:01;;;;;;;17.43;2.90;;;;;;;-145.18;100.00;46697.50;5052191;28;20040;-68
2022/11/07 08:57:26;;;;;;;11.43;3.33;;;;;;;-145.18;100.00;46699.47;5052852;28;20385;-68
2022/11/07 08:59:52;;;;;;;17.47;3.33;;;;;;;-145.18;100.00;46699.47;5052399;28;20037;-68
2022/11/07 09:02:17;;;;;;;17.53;3.30;;;;;;;-145.18;100.00;46699.47;5052103;28;20037;-68
2022/11/07 09:04:42;;;;;;;13.63;3.03;;;;;;;-145.18;100.00;46699.47;5051833;28;20539;-68
2022/11/07 09:07:08;;;;;;;24.27;4.00;;;;;;;-145.18;100.00;46697.50;5052270;28;20033;-68
2022/11/07 09:09:33;;;;;;;16.73;3.30;;;;;;;-145.18;100.00;46699.47;5052360;28;20055;-68
2022/11/07 09:11:58;;;;;;;15.10;3.10;;;;;;;-145.18;100.00;46699.47;5052087;28;20041;-68
2022/11/07 09:14:24;;;;;;;15.83;3.50;;;;;;;-145.18;100.00;46699.47;5052249;28;20035;-68
2022/11/07 09:16:49;;;;;;;16.17;3.30;;;;;;;-145.18;100.00;46691.66;5052207;28;20075;-68
2022/11/07 09:19:15;;;;;;;22.63;3.37;;;;;;;-145.18;100.00;46693.59;5051681;28;20495;-68
2022/11/07 09:21:41;;;;;;;17.53;3.57;;;;;;;-145.18;100.00;46697.50;5052301;28;20033;-68
2022/11/07 09:24:07;;;;;;;16.50;3.60;;;;;;;-145.18;100.00;46695.56;5051969;28;20091;-68
2022/11/07 09:26:32;;;;;;;17.00;3.03;;;;;;;-145.18;100.00;46697.50;5051893;28;20041;-68
2022/11/07 09:28:57;;;;;;;20.03;3.47;;;;;;;-145.18;100.00;46693.59;5051717;28;20044;-68
2022/11/07 09:31:23;;;;;;;19.90;3.60;;;;;;;-145.18;100.00;46699.47;5051651;28;20568;-68
2022/11/07 09:33:48;;;;;;;22.13;4.23;;;;;;;-145.18;100.00;46691.66;5051668;28;20479;-68
2022/11/07 09:36:14;;;;;;;29.53;4.00;;;;;;;-145.18;100.00;46691.66;5051755;28;20040;-68
2022/11/07 09:38:39;;;;;;;24.50;3.90;;;;;;;-145.18;100.00;46691.66;5033740;28;20033;-68
2022/11/07 09:41:11;;;;;;;20.83;4.13;;;;;;;-145.18;100.00;46693.59;5051681;28;20044;-68
2022/11/07 09:43:55;;;;;;;17.30;4.07;;;;;;;-145.18;100.00;46689.69;5051567;28;20091;-68
2022/11/07 09:46:50;;;;;;;19.27;3.93;;;;;;;-145.18;100.00;46691.66;5051249;28;20029;-68
2022/11/07 09:49:44;;;;;;;22.30;4.43;;;;;;;-145.18;100.00;46689.69;5051410;28;20567;-68
2022/11/07 09:52:25;;;;;;;21.80;3.70;;;;;;;-145.18;100.00;46691.66;5051618;28;20032;-68
2022/11/07 09:54:56;;;;;;;19.50;4.50;;;;;;;-145.18;100.00;46693.59;5032795;28;20480;-68
2022/11/07 09:57:22;;;;;;;20.00;4.13;;;;;;;-145.18;100.00;46691.66;5051280;28;20029;-69
2022/11/07 09:59:53;;;;;;;18.33;4.20;;;;;;;-145.18;100.00;46691.66;5051086;28;20366;-69
2022/11/07 10:02:23;;;;;;;17.63;4.00;;;;;;;-145.18;100.00;46691.66;5050832;28;20025;-69
2022/11/07 10:04:55;;;;;;;15.57;4.50;;;;;;;-145.18;100.00;46693.59;5051180;28;20049;-69
2022/11/07 10:07:53;;;;;;;20.40;3.63;;;;;;;-145.18;100.00;46691.66;5050935;28;20033;-69
2022/11/07 10:10:36;;;;;;;19.13;3.80;;;;;;;-145.18;100.00;46695.56;5050752;28;20497;-69
2022/11/07 10:13:08;;;;;;;20.00;5.07;;;;;;;-145.18;100.00;46691.66;5050193;28;20029;-69
2022/11/07 10:15:52;;;;;;;16.77;3.27;;;;;;;-145.18;100.00;46693.59;5050935;28;20437;-69
2022/11/07 10:18:35;;;;;;;22.33;4.40;;;;;;;-145.18;100.00;46693.59;5050464;28;20036;-69
2022/11/07 10:21:22;;;;;;;23.33;5.27;;;;;;;-145.18;100.00;46695.56;5050756;28;20044;-69
2022/11/07 10:24:06;;;;;;;13.73;3.70;;;;;;;-145.18;100.00;46697.50;5050877;28;20029;-69
2022/11/07 10:26:32;;;;;;;16.93;3.00;;;;;;;-145.18;100.00;46697.50;5051064;28;20037;-69
2022/11/07 10:29:16;;;;;;;15.60;3.50;;;;;;;-145.18;100.00;46695.56;5054972;28;20090;-69
2022/11/07 10:32:04;;;;;;;18.47;3.93;;;;;;;-145.18;100.00;46699.47;5069639;28;20108;-69
2022/11/07 10:34:48;;;;;;;18.50;3.93;;;;;;;-145.18;100.00;46699.47;5030735;28;20029;-69
2022/11/07 10:37:13;;;;;;;20.40;3.77;;;;;;;-145.18;100.00;46693.59;5030444;28;20040;-69
2022/11/07 10:39:39;;;;;;;16.13;3.07;;;;;;;-145.18;100.00;46697.50;5030789;28;20124;-69
2022/11/07 10:42:12;;;;;;;16.17;3.17;;;;;;;-145.18;100.00;46697.50;5030544;28;20037;-69
2022/11/07 10:44:39;;;;;;;15.40;3.50;;;;;;;-145.18;100.00;46695.56;5030487;28;20033;-69
2022/11/07 10:47:20;;;;;;;18.30;3.90;;;;;;;-145.18;100.00;46699.47;5030697;28;20100;-69
2022/11/07 10:50:01;;;;;;;19.90;4.87;;;;;;;-145.18;100.00;46699.47;5030555;28;20029;-68
2022/11/07 10:52:27;;;;;;;12.40;3.20;;;;;;;-145.18;100.00;46699.47;5030715;28;20040;-69
2022/11/07 10:55:07;;;;;;;22.10;3.23;;;;;;;-145.18;100.00;46701.41;5030037;28;20470;-68
2022/11/07 10:57:34;;;;;;;19.83;4.97;;;;;;;-145.18;100.00;46699.47;5030606;28;20049;-69
2022/11/07 11:00:01;;;;;;;13.47;3.47;;;;;;;-145.18;100.00;46699.47;5030272;28;20057;-69
2022/11/07 11:02:40;;;;;;;17.70;3.83;;;;;;;-145.18;100.00;46695.56;5030264;28;20466;-68
2022/11/07 11:05:24;;;;;;;18.37;3.10;;;;;;;-145.18;100.00;46695.56;5009226;28;20041;-68
2022/11/07 11:07:50;;;;;;;13.07;3.77;;;;;;;-145.18;100.00;46697.50;5009354;28;20033;-68
2022/11/07 11:10:28;;;;;;;17.57;3.47;;;;;;;-145.18;100.00;46697.50;5009418;28;20030;-68
2022/11/07 11:12:53;;;;;;;20.17;4.00;;;;;;;-145.18;100.00;46697.50;5010278;28;20034;-68
2022/11/07 11:15:26;;;;;;;16.10;4.13;;;;;;;-145.18;100.00;46699.47;5009982;28;20037;-69
2022/11/07 11:18:01;;;;;;;16.00;3.47;;;;;;;-145.18;100.00;46699.47;5010466;28;20429;-68